イエローナイフ の空港の天気 - METARとTAF

イエローナイフ空港 ( CYZF / YZF ) - カナダ ノースウエスト準州イエローナイフ
飛行場実況気象(Metar)
観測時間07/18 21:00 MDT (07/19 03:00 UTC)
風向・風速北東 6m/s
視程10km以上
天気現象
少しの雲 雲底高度 1220m
気温19℃
湿度46%
気圧1008.8hPa
METARCYZF 190300Z 04012KT 15SM FEW040 19/07 A2977 RMK FU1 SLP088 DENSITY ALT 1500FT
過去の天気等 Google飛行場航空写真 Wunderground天気予報

過去48時間のMETAR

飛行場予報(TAF)
発表時間: 7/18 17:38 MDT (7/18 23:38 UTC)
予報対象時間: 18日18時 MDT ~ 19日18時 MDT
風向・風速北北東 5m/s 瞬間風速 10m/s
視程10km以上
少しの雲 雲底高度 1220m
19日0時 MDT から
風向・風速東 4m/s
視程10km以上
なし
19日10時 MDT から
風向・風速東 4m/s
視程10km以上
少しの雲 雲底高度 1830m
19日14時 MDT ~ 19日16時 MDT に徐々に
風向・風速南南東 3m/s
TAF CYZF 182338Z 1900/1924 03010G20KT P6SM FEW040
FM190600 09008KT P6SM SKC
FM191600 09008KT P6SM FEW060
BECMG 1920/1922 16005KT RMK NXT FCST BY 190600Z